sensor_id;sensor_type;location;lat;lon;timestamp;temperature;humidity
52731;DHT22;38624;53.242;6.974;2022-07-29T00:02:09;15.30;99.90
52731;DHT22;38624;53.242;6.974;2022-07-29T00:04:36;15.30;99.90
52731;DHT22;38624;53.242;6.974;2022-07-29T00:07:02;15.30;99.90
52731;DHT22;38624;53.242;6.974;2022-07-29T00:09:28;15.30;99.90
52731;DHT22;38624;53.242;6.974;2022-07-29T00:11:56;15.30;99.90
52731;DHT22;38624;53.242;6.974;2022-07-29T00:14:22;15.40;99.90
52731;DHT22;38624;53.242;6.974;2022-07-29T00:16:48;15.40;99.90
52731;DHT22;38624;53.242;6.974;2022-07-29T00:19:13;15.40;99.90
52731;DHT22;38624;53.242;6.974;2022-07-29T00:21:39;15.40;99.90
52731;DHT22;38624;53.242;6.974;2022-07-29T00:24:05;15.50;99.90
52731;DHT22;38624;53.242;6.974;2022-07-29T00:26:31;15.50;99.90
52731;DHT22;38624;53.242;6.974;2022-07-29T00:29:01;15.50;99.90
52731;DHT22;38624;53.242;6.974;2022-07-29T00:31:27;15.50;99.90
52731;DHT22;38624;53.242;6.974;2022-07-29T00:33:53;15.50;99.90
52731;DHT22;38624;53.242;6.974;2022-07-29T00:36:19;15.50;99.90
52731;DHT22;38624;53.242;6.974;2022-07-29T00:38:47;15.60;99.90
52731;DHT22;38624;53.242;6.974;2022-07-29T00:41:13;15.60;99.90
52731;DHT22;38624;53.242;6.974;2022-07-29T00:43:39;15.60;99.90
52731;DHT22;38624;53.242;6.974;2022-07-29T00:46:05;15.60;99.90
52731;DHT22;38624;53.242;6.974;2022-07-29T00:48:30;15.60;99.90
52731;DHT22;38624;53.242;6.974;2022-07-29T00:50:57;15.60;99.90
52731;DHT22;38624;53.242;6.974;2022-07-29T00:53:25;15.60;99.90
52731;DHT22;38624;53.242;6.974;2022-07-29T00:55:50;15.60;99.90
52731;DHT22;38624;53.242;6.974;2022-07-29T00:58:16;15.60;99.90
52731;DHT22;38624;53.242;6.974;2022-07-29T01:00:42;15.60;99.90
52731;DHT22;38624;53.242;6.974;2022-07-29T01:03:08;15.60;99.90
52731;DHT22;38624;53.242;6.974;2022-07-29T01:05:35;15.60;99.90
52731;DHT22;38624;53.242;6.974;2022-07-29T01:08:01;15.60;99.90
52731;DHT22;38624;53.242;6.974;2022-07-29T01:10:27;15.60;99.90
52731;DHT22;38624;53.242;6.974;2022-07-29T01:12:57;15.60;99.90
52731;DHT22;38624;53.242;6.974;2022-07-29T01:15:24;15.60;99.90
52731;DHT22;38624;53.242;6.974;2022-07-29T01:18:12;15.60;99.90
52731;DHT22;38624;53.242;6.974;2022-07-29T01:34:48;15.70;99.90
52731;DHT22;38624;53.242;6.974;2022-07-29T01:40:04;15.60;99.90
52731;DHT22;38624;53.242;6.974;2022-07-29T01:42:44;15.60;99.90
52731;DHT22;38624;53.242;6.974;2022-07-29T01:45:43;15.60;99.90
52731;DHT22;38624;53.242;6.974;2022-07-29T01:48:16;15.70;99.90
52731;DHT22;38624;53.242;6.974;2022-07-29T01:50:49;15.70;99.90
52731;DHT22;38624;53.242;6.974;2022-07-29T01:53:29;15.70;99.90
52731;DHT22;38624;53.242;6.974;2022-07-29T01:55:57;15.70;99.90
52731;DHT22;38624;53.242;6.974;2022-07-29T01:58:24;15.70;99.90
52731;DHT22;38624;53.242;6.974;2022-07-29T02:00:52;15.70;99.90
52731;DHT22;38624;53.242;6.974;2022-07-29T02:03:19;15.70;99.90
52731;DHT22;38624;53.242;6.974;2022-07-29T02:05:46;15.70;99.90
52731;DHT22;38624;53.242;6.974;2022-07-29T02:08:15;15.70;99.90
52731;DHT22;38624;53.242;6.974;2022-07-29T02:10:42;15.60;99.90
52731;DHT22;38624;53.242;6.974;2022-07-29T02:13:10;15.60;99.90
52731;DHT22;38624;53.242;6.974;2022-07-29T02:15:37;15.70;99.90
52731;DHT22;38624;53.242;6.974;2022-07-29T02:18:16;15.80;99.90
52731;DHT22;38624;53.242;6.974;2022-07-29T02:20:45;15.60;99.90
52731;DHT22;38624;53.242;6.974;2022-07-29T02:23:12;15.60;99.90
52731;DHT22;38624;53.242;6.974;2022-07-29T02:25:41;15.60;99.90
52731;DHT22;38624;53.242;6.974;2022-07-29T02:28:07;15.50;99.90
52731;DHT22;38624;53.242;6.974;2022-07-29T02:30:36;15.60;99.90
52731;DHT22;38624;53.242;6.974;2022-07-29T02:33:05;15.50;99.90
52731;DHT22;38624;53.242;6.974;2022-07-29T02:35:33;15.50;99.90
52731;DHT22;38624;53.242;6.974;2022-07-29T02:37:58;15.50;99.90
52731;DHT22;38624;53.242;6.974;2022-07-29T02:40:43;15.50;99.90
52731;DHT22;38624;53.242;6.974;2022-07-29T02:43:10;15.50;99.90
52731;DHT22;38624;53.242;6.974;2022-07-29T02:45:36;15.40;99.90
52731;DHT22;38624;53.242;6.974;2022-07-29T02:48:12;15.40;99.90
52731;DHT22;38624;53.242;6.974;2022-07-29T02:50:45;15.40;99.90
52731;DHT22;38624;53.242;6.974;2022-07-29T02:53:19;15.40;99.90
52731;DHT22;38624;53.242;6.974;2022-07-29T02:55:56;15.40;99.90
52731;DHT22;38624;53.242;6.974;2022-07-29T02:58:40;15.40;99.90
52731;DHT22;38624;53.242;6.974;2022-07-29T03:01:23;15.30;99.90
52731;DHT22;38624;53.242;6.974;2022-07-29T03:03:53;15.30;99.90
52731;DHT22;38624;53.242;6.974;2022-07-29T03:06:21;15.40;99.90
52731;DHT22;38624;53.242;6.974;2022-07-29T03:08:48;15.30;99.90
52731;DHT22;38624;53.242;6.974;2022-07-29T03:11:14;15.40;99.90
52731;DHT22;38624;53.242;6.974;2022-07-29T03:13:41;15.40;99.90
52731;DHT22;38624;53.242;6.974;2022-07-29T03:16:08;15.30;99.90
52731;DHT22;38624;53.242;6.974;2022-07-29T03:18:35;15.30;99.90
52731;DHT22;38624;53.242;6.974;2022-07-29T03:21:02;15.30;99.90
52731;DHT22;38624;53.242;6.974;2022-07-29T03:23:28;15.30;99.90
52731;DHT22;38624;53.242;6.974;2022-07-29T03:25:55;15.30;99.90
52731;DHT22;38624;53.242;6.974;2022-07-29T03:28:21;15.30;99.90
52731;DHT22;38624;53.242;6.974;2022-07-29T03:30:47;15.30;99.90
52731;DHT22;38624;53.242;6.974;2022-07-29T03:33:13;15.30;99.90
52731;DHT22;38624;53.242;6.974;2022-07-29T03:35:39;15.30;99.90
52731;DHT22;38624;53.242;6.974;2022-07-29T03:38:04;15.30;99.90
52731;DHT22;38624;53.242;6.974;2022-07-29T03:40:44;15.20;99.90
52731;DHT22;38624;53.242;6.974;2022-07-29T03:43:13;15.20;99.90
52731;DHT22;38624;53.242;6.974;2022-07-29T03:45:44;15.20;99.90
52731;DHT22;38624;53.242;6.974;2022-07-29T03:48:12;15.20;99.90
52731;DHT22;38624;53.242;6.974;2022-07-29T03:50:39;15.20;99.90
52731;DHT22;38624;53.242;6.974;2022-07-29T03:53:05;15.20;99.90
52731;DHT22;38624;53.242;6.974;2022-07-29T03:55:36;15.20;99.90
52731;DHT22;38624;53.242;6.974;2022-07-29T03:58:03;15.20;99.90
52731;DHT22;38624;53.242;6.974;2022-07-29T04:00:29;15.20;99.90
52731;DHT22;38624;53.242;6.974;2022-07-29T04:02:56;15.20;99.90
52731;DHT22;38624;53.242;6.974;2022-07-29T04:05:22;15.20;99.90
52731;DHT22;38624;53.242;6.974;2022-07-29T04:07:48;15.20;99.90
52731;DHT22;38624;53.242;6.974;2022-07-29T04:10:14;15.10;99.90
52731;DHT22;38624;53.242;6.974;2022-07-29T04:12:44;15.20;99.90
52731;DHT22;38624;53.242;6.974;2022-07-29T04:15:10;15.20;99.90
52731;DHT22;38624;53.242;6.974;2022-07-29T04:17:36;15.20;99.90
52731;DHT22;38624;53.242;6.974;2022-07-29T04:20:02;15.20;99.90
52731;DHT22;38624;53.242;6.974;2022-07-29T04:22:28;15.20;99.90
52731;DHT22;38624;53.242;6.974;2022-07-29T04:24:54;15.20;99.90
52731;DHT22;38624;53.242;6.974;2022-07-29T04:27:20;15.20;99.90
52731;DHT22;38624;53.242;6.974;2022-07-29T04:29:46;15.20;99.90
52731;DHT22;38624;53.242;6.974;2022-07-29T04:32:11;15.20;99.90
52731;DHT22;38624;53.242;6.974;2022-07-29T04:34:37;15.20;99.90
52731;DHT22;38624;53.242;6.974;2022-07-29T04:37:03;15.30;99.90
52731;DHT22;38624;53.242;6.974;2022-07-29T04:39:29;15.30;99.90
52731;DHT22;38624;53.242;6.974;2022-07-29T04:41:55;15.30;99.90
52731;DHT22;38624;53.242;6.974;2022-07-29T04:44:20;15.40;99.90
52731;DHT22;38624;53.242;6.974;2022-07-29T04:46:46;15.40;99.90
52731;DHT22;38624;53.242;6.974;2022-07-29T04:49:12;15.40;99.90
52731;DHT22;38624;53.242;6.974;2022-07-29T04:51:38;15.50;99.90
52731;DHT22;38624;53.242;6.974;2022-07-29T04:54:04;15.50;99.90
52731;DHT22;38624;53.242;6.974;2022-07-29T04:56:30;15.50;99.90
52731;DHT22;38624;53.242;6.974;2022-07-29T04:58:56;15.60;99.90
52731;DHT22;38624;53.242;6.974;2022-07-29T05:01:21;15.50;99.90
52731;DHT22;38624;53.242;6.974;2022-07-29T05:03:47;15.50;99.90
52731;DHT22;38624;53.242;6.974;2022-07-29T05:06:13;15.60;99.90
52731;DHT22;38624;53.242;6.974;2022-07-29T05:08:38;15.50;99.90
52731;DHT22;38624;53.242;6.974;2022-07-29T05:11:04;15.50;99.90
52731;DHT22;38624;53.242;6.974;2022-07-29T05:13:30;15.50;99.90
52731;DHT22;38624;53.242;6.974;2022-07-29T05:15:55;15.60;99.90
52731;DHT22;38624;53.242;6.974;2022-07-29T05:18:24;15.60;99.90
52731;DHT22;38624;53.242;6.974;2022-07-29T05:20:50;15.60;99.90
52731;DHT22;38624;53.242;6.974;2022-07-29T05:23:16;15.60;99.90
52731;DHT22;38624;53.242;6.974;2022-07-29T05:25:42;15.60;99.90
52731;DHT22;38624;53.242;6.974;2022-07-29T05:28:07;15.70;99.90
52731;DHT22;38624;53.242;6.974;2022-07-29T05:30:33;15.70;99.90
52731;DHT22;38624;53.242;6.974;2022-07-29T05:32:59;15.70;99.90
52731;DHT22;38624;53.242;6.974;2022-07-29T05:35:25;15.80;99.90
52731;DHT22;38624;53.242;6.974;2022-07-29T05:37:50;15.80;99.90
52731;DHT22;38624;53.242;6.974;2022-07-29T05:40:16;15.80;99.90
52731;DHT22;38624;53.242;6.974;2022-07-29T05:42:42;15.90;99.90
52731;DHT22;38624;53.242;6.974;2022-07-29T05:45:08;15.90;99.90
52731;DHT22;38624;53.242;6.974;2022-07-29T05:47:34;16.00;99.90
52731;DHT22;38624;53.242;6.974;2022-07-29T05:50:00;15.90;99.90
52731;DHT22;38624;53.242;6.974;2022-07-29T05:52:25;16.10;99.90
52731;DHT22;38624;53.242;6.974;2022-07-29T05:54:51;16.10;99.90
52731;DHT22;38624;53.242;6.974;2022-07-29T05:57:22;16.20;99.90
52731;DHT22;38624;53.242;6.974;2022-07-29T05:59:49;16.20;99.90
52731;DHT22;38624;53.242;6.974;2022-07-29T06:02:15;16.20;99.90
52731;DHT22;38624;53.242;6.974;2022-07-29T06:04:41;16.30;99.90
52731;DHT22;38624;53.242;6.974;2022-07-29T06:07:07;16.30;99.90
52731;DHT22;38624;53.242;6.974;2022-07-29T06:09:34;16.30;99.90
52731;DHT22;38624;53.242;6.974;2022-07-29T06:12:00;16.40;99.90
52731;DHT22;38624;53.242;6.974;2022-07-29T06:14:26;16.40;99.90
52731;DHT22;38624;53.242;6.974;2022-07-29T06:16:55;16.40;99.90
52731;DHT22;38624;53.242;6.974;2022-07-29T06:19:20;16.40;99.90
52731;DHT22;38624;53.242;6.974;2022-07-29T06:21:47;16.50;99.90
52731;DHT22;38624;53.242;6.974;2022-07-29T06:24:14;16.50;99.90
52731;DHT22;38624;53.242;6.974;2022-07-29T06:26:40;16.50;99.90
52731;DHT22;38624;53.242;6.974;2022-07-29T06:29:07;16.60;99.90
52731;DHT22;38624;53.242;6.974;2022-07-29T06:31:33;16.60;99.90
52731;DHT22;38624;53.242;6.974;2022-07-29T06:33:59;16.70;99.90
52731;DHT22;38624;53.242;6.974;2022-07-29T06:36:25;16.70;99.90
52731;DHT22;38624;53.242;6.974;2022-07-29T06:38:50;16.80;99.90
52731;DHT22;38624;53.242;6.974;2022-07-29T06:41:16;16.80;99.90
52731;DHT22;38624;53.242;6.974;2022-07-29T06:43:44;16.90;99.90
52731;DHT22;38624;53.242;6.974;2022-07-29T06:46:13;16.90;99.90
52731;DHT22;38624;53.242;6.974;2022-07-29T06:48:40;17.00;99.90
52731;DHT22;38624;53.242;6.974;2022-07-29T06:51:07;17.00;99.90
52731;DHT22;38624;53.242;6.974;2022-07-29T06:53:33;17.00;99.90
52731;DHT22;38624;53.242;6.974;2022-07-29T06:56:00;17.00;99.90
52731;DHT22;38624;53.242;6.974;2022-07-29T06:58:27;17.10;99.90
52731;DHT22;38624;53.242;6.974;2022-07-29T07:00:53;17.20;99.90
52731;DHT22;38624;53.242;6.974;2022-07-29T07:03:19;17.10;99.90
52731;DHT22;38624;53.242;6.974;2022-07-29T07:05:46;17.10;99.90
52731;DHT22;38624;53.242;6.974;2022-07-29T07:08:13;17.10;99.90
52731;DHT22;38624;53.242;6.974;2022-07-29T07:10:39;17.10;99.90
52731;DHT22;38624;53.242;6.974;2022-07-29T07:13:05;17.10;99.90
52731;DHT22;38624;53.242;6.974;2022-07-29T07:15:31;17.10;99.90
52731;DHT22;38624;53.242;6.974;2022-07-29T07:17:57;17.20;99.90
52731;DHT22;38624;53.242;6.974;2022-07-29T07:20:24;17.20;99.90
52731;DHT22;38624;53.242;6.974;2022-07-29T07:22:50;17.20;99.90
52731;DHT22;38624;53.242;6.974;2022-07-29T07:25:16;17.20;99.90
52731;DHT22;38624;53.242;6.974;2022-07-29T07:27:44;17.30;99.90
52731;DHT22;38624;53.242;6.974;2022-07-29T07:30:10;17.30;99.90
52731;DHT22;38624;53.242;6.974;2022-07-29T07:32:36;17.30;99.90
52731;DHT22;38624;53.242;6.974;2022-07-29T07:35:04;17.40;99.90
52731;DHT22;38624;53.242;6.974;2022-07-29T07:37:30;17.50;99.90
52731;DHT22;38624;53.242;6.974;2022-07-29T07:39:56;17.50;99.90
52731;DHT22;38624;53.242;6.974;2022-07-29T07:42:22;17.60;99.90
52731;DHT22;38624;53.242;6.974;2022-07-29T07:44:47;17.60;99.90
52731;DHT22;38624;53.242;6.974;2022-07-29T07:47:17;17.70;99.90
52731;DHT22;38624;53.242;6.974;2022-07-29T07:49:49;17.80;99.90
52731;DHT22;38624;53.242;6.974;2022-07-29T07:52:19;17.80;99.90
52731;DHT22;38624;53.242;6.974;2022-07-29T07:54:45;17.80;99.90
52731;DHT22;38624;53.242;6.974;2022-07-29T07:57:12;17.90;99.90
52731;DHT22;38624;53.242;6.974;2022-07-29T07:59:38;18.00;99.90
52731;DHT22;38624;53.242;6.974;2022-07-29T08:02:04;18.10;99.90
52731;DHT22;38624;53.242;6.974;2022-07-29T08:04:30;18.30;99.90
52731;DHT22;38624;53.242;6.974;2022-07-29T08:06:57;18.30;99.90
52731;DHT22;38624;53.242;6.974;2022-07-29T08:09:24;18.30;99.90
52731;DHT22;38624;53.242;6.974;2022-07-29T08:11:50;18.40;99.90
52731;DHT22;38624;53.242;6.974;2022-07-29T08:14:16;18.40;99.90
52731;DHT22;38624;53.242;6.974;2022-07-29T08:16:41;18.40;99.90
52731;DHT22;38624;53.242;6.974;2022-07-29T08:19:08;18.50;99.90
52731;DHT22;38624;53.242;6.974;2022-07-29T08:21:34;18.60;99.90
52731;DHT22;38624;53.242;6.974;2022-07-29T08:24:00;18.70;99.90
52731;DHT22;38624;53.242;6.974;2022-07-29T08:26:45;18.80;99.90
52731;DHT22;38624;53.242;6.974;2022-07-29T08:29:11;19.00;99.90
52731;DHT22;38624;53.242;6.974;2022-07-29T08:31:37;19.10;99.90
52731;DHT22;38624;53.242;6.974;2022-07-29T08:34:04;19.20;99.90
52731;DHT22;38624;53.242;6.974;2022-07-29T08:36:31;19.30;99.90
52731;DHT22;38624;53.242;6.974;2022-07-29T08:38:57;19.40;99.90
52731;DHT22;38624;53.242;6.974;2022-07-29T08:41:23;19.50;99.90
52731;DHT22;38624;53.242;6.974;2022-07-29T08:43:50;19.60;99.90
52731;DHT22;38624;53.242;6.974;2022-07-29T08:46:17;19.60;99.90
52731;DHT22;38624;53.242;6.974;2022-07-29T08:48:43;19.70;99.90
52731;DHT22;38624;53.242;6.974;2022-07-29T08:51:13;19.80;99.90
52731;DHT22;38624;53.242;6.974;2022-07-29T08:53:41;19.80;99.90
52731;DHT22;38624;53.242;6.974;2022-07-29T08:56:08;19.80;99.90
52731;DHT22;38624;53.242;6.974;2022-07-29T08:58:36;19.90;99.90
52731;DHT22;38624;53.242;6.974;2022-07-29T09:01:02;20.00;99.90
52731;DHT22;38624;53.242;6.974;2022-07-29T09:03:34;20.10;99.90
52731;DHT22;38624;53.242;6.974;2022-07-29T09:06:01;20.20;99.90
52731;DHT22;38624;53.242;6.974;2022-07-29T09:08:27;20.20;99.90
52731;DHT22;38624;53.242;6.974;2022-07-29T09:10:54;20.20;99.90
52731;DHT22;38624;53.242;6.974;2022-07-29T09:13:22;20.30;99.90
52731;DHT22;38624;53.242;6.974;2022-07-29T09:15:48;20.30;99.90
52731;DHT22;38624;53.242;6.974;2022-07-29T09:18:37;20.30;99.90
52731;DHT22;38624;53.242;6.974;2022-07-29T09:21:04;20.30;99.90
52731;DHT22;38624;53.242;6.974;2022-07-29T09:24:08;20.30;99.90
52731;DHT22;38624;53.242;6.974;2022-07-29T09:26:36;20.40;99.90
52731;DHT22;38624;53.242;6.974;2022-07-29T09:29:13;20.50;99.90
52731;DHT22;38624;53.242;6.974;2022-07-29T09:31:42;20.50;99.90
52731;DHT22;38624;53.242;6.974;2022-07-29T09:34:09;20.60;99.90
52731;DHT22;38624;53.242;6.974;2022-07-29T09:36:44;20.60;99.90
52731;DHT22;38624;53.242;6.974;2022-07-29T09:39:10;20.60;99.90
52731;DHT22;38624;53.242;6.974;2022-07-29T09:41:50;20.60;99.90
52731;DHT22;38624;53.242;6.974;2022-07-29T09:44:18;20.70;99.90
52731;DHT22;38624;53.242;6.974;2022-07-29T09:49:31;20.70;99.90
52731;DHT22;38624;53.242;6.974;2022-07-29T09:52:09;20.80;99.90
52731;DHT22;38624;53.242;6.974;2022-07-29T09:54:37;20.80;99.90
52731;DHT22;38624;53.242;6.974;2022-07-29T09:57:08;20.80;99.90
52731;DHT22;38624;53.242;6.974;2022-07-29T09:59:38;20.80;99.90
52731;DHT22;38624;53.242;6.974;2022-07-29T10:02:14;20.70;99.90
52731;DHT22;38624;53.242;6.974;2022-07-29T10:04:41;20.70;99.90
52731;DHT22;38624;53.242;6.974;2022-07-29T10:07:07;20.70;99.90
52731;DHT22;38624;53.242;6.974;2022-07-29T10:09:34;20.80;99.90
52731;DHT22;38624;53.242;6.974;2022-07-29T10:12:13;20.90;99.90
52731;DHT22;38624;53.242;6.974;2022-07-29T10:14:40;20.90;99.90
52731;DHT22;38624;53.242;6.974;2022-07-29T10:17:08;21.00;99.90
52731;DHT22;38624;53.242;6.974;2022-07-29T10:19:35;21.00;99.90
52731;DHT22;38624;53.242;6.974;2022-07-29T10:22:05;21.20;99.90
52731;DHT22;38624;53.242;6.974;2022-07-29T10:24:31;21.20;99.90
52731;DHT22;38624;53.242;6.974;2022-07-29T10:26:58;21.40;99.90
52731;DHT22;38624;53.242;6.974;2022-07-29T10:29:25;21.50;99.90
52731;DHT22;38624;53.242;6.974;2022-07-29T10:43:33;21.90;99.90
52731;DHT22;38624;53.242;6.974;2022-07-29T10:46:02;22.00;99.90
52731;DHT22;38624;53.242;6.974;2022-07-29T10:48:28;22.10;99.90
52731;DHT22;38624;53.242;6.974;2022-07-29T10:51:03;22.20;99.90
52731;DHT22;38624;53.242;6.974;2022-07-29T10:53:50;22.20;99.90
52731;DHT22;38624;53.242;6.974;2022-07-29T10:56:34;22.20;99.90
52731;DHT22;38624;53.242;6.974;2022-07-29T11:01:47;22.40;99.90
52731;DHT22;38624;53.242;6.974;2022-07-29T11:04:13;22.40;99.90
52731;DHT22;38624;53.242;6.974;2022-07-29T11:09:24;22.40;99.90
52731;DHT22;38624;53.242;6.974;2022-07-29T11:11:50;22.50;99.90
52731;DHT22;38624;53.242;6.974;2022-07-29T11:14:16;22.60;99.90
52731;DHT22;38624;53.242;6.974;2022-07-29T11:17:00;22.80;99.90
52731;DHT22;38624;53.242;6.974;2022-07-29T11:19:30;22.80;99.90
52731;DHT22;38624;53.242;6.974;2022-07-29T11:21:56;22.90;99.90
52731;DHT22;38624;53.242;6.974;2022-07-29T11:24:27;22.90;99.90
52731;DHT22;38624;53.242;6.974;2022-07-29T11:27:16;22.90;99.90
52731;DHT22;38624;53.242;6.974;2022-07-29T11:29:51;23.10;99.90
52731;DHT22;38624;53.242;6.974;2022-07-29T11:32:17;23.10;99.90
52731;DHT22;38624;53.242;6.974;2022-07-29T11:34:46;23.20;99.90
52731;DHT22;38624;53.242;6.974;2022-07-29T11:39:43;23.20;99.90
52731;DHT22;38624;53.242;6.974;2022-07-29T11:47:23;23.30;99.90
52731;DHT22;38624;53.242;6.974;2022-07-29T11:49:52;23.40;99.90
52731;DHT22;38624;53.242;6.974;2022-07-29T11:52:19;23.50;99.90
52731;DHT22;38624;53.242;6.974;2022-07-29T11:54:47;23.70;99.90
52731;DHT22;38624;53.242;6.974;2022-07-29T11:57:15;23.70;99.90
52731;DHT22;38624;53.242;6.974;2022-07-29T11:59:43;23.80;99.90
52731;DHT22;38624;53.242;6.974;2022-07-29T12:02:10;23.90;99.90
52731;DHT22;38624;53.242;6.974;2022-07-29T12:04:51;23.90;99.90
52731;DHT22;38624;53.242;6.974;2022-07-29T12:07:18;23.90;99.90
52731;DHT22;38624;53.242;6.974;2022-07-29T12:09:51;23.90;99.90
52731;DHT22;38624;53.242;6.974;2022-07-29T12:12:17;24.00;99.90
52731;DHT22;38624;53.242;6.974;2022-07-29T12:14:43;24.10;99.90
52731;DHT22;38624;53.242;6.974;2022-07-29T12:17:29;24.10;99.90
52731;DHT22;38624;53.242;6.974;2022-07-29T12:19:57;24.20;99.90
52731;DHT22;38624;53.242;6.974;2022-07-29T12:22:35;24.20;99.90
52731;DHT22;38624;53.242;6.974;2022-07-29T12:25:10;24.40;99.90
52731;DHT22;38624;53.242;6.974;2022-07-29T12:27:37;24.40;99.90
52731;DHT22;38624;53.242;6.974;2022-07-29T12:30:12;24.50;99.90
52731;DHT22;38624;53.242;6.974;2022-07-29T12:32:43;24.50;99.90
52731;DHT22;38624;53.242;6.974;2022-07-29T12:35:18;24.60;99.90
52731;DHT22;38624;53.242;6.974;2022-07-29T12:37:46;24.70;99.90
52731;DHT22;38624;53.242;6.974;2022-07-29T12:40:15;24.80;99.90
52731;DHT22;38624;53.242;6.974;2022-07-29T12:43:15;25.00;99.90
52731;DHT22;38624;53.242;6.974;2022-07-29T12:45:43;25.10;99.90
52731;DHT22;38624;53.242;6.974;2022-07-29T12:48:10;25.10;99.90
52731;DHT22;38624;53.242;6.974;2022-07-29T12:50:37;25.00;99.90
52731;DHT22;38624;53.242;6.974;2022-07-29T12:53:16;24.90;99.90
52731;DHT22;38624;53.242;6.974;2022-07-29T12:55:48;24.80;99.90
52731;DHT22;38624;53.242;6.974;2022-07-29T13:01:14;24.70;99.90
52731;DHT22;38624;53.242;6.974;2022-07-29T13:03:56;24.60;99.90
52731;DHT22;38624;53.242;6.974;2022-07-29T13:09:18;24.30;99.90
52731;DHT22;38624;53.242;6.974;2022-07-29T13:11:49;24.10;99.90
52731;DHT22;38624;53.242;6.974;2022-07-29T13:17:14;24.00;99.90
52731;DHT22;38624;53.242;6.974;2022-07-29T13:19:48;23.90;99.90
52731;DHT22;38624;53.242;6.974;2022-07-29T13:22:22;23.80;99.90
52731;DHT22;38624;53.242;6.974;2022-07-29T13:24:59;23.80;99.90
52731;DHT22;38624;53.242;6.974;2022-07-29T13:27:31;23.70;99.90
52731;DHT22;38624;53.242;6.974;2022-07-29T13:29:59;23.60;99.90
52731;DHT22;38624;53.242;6.974;2022-07-29T13:32:29;23.60;99.90
52731;DHT22;38624;53.242;6.974;2022-07-29T13:35:00;23.50;99.90
52731;DHT22;38624;53.242;6.974;2022-07-29T13:37:27;23.50;99.90
52731;DHT22;38624;53.242;6.974;2022-07-29T13:39:55;23.40;99.90
52731;DHT22;38624;53.242;6.974;2022-07-29T13:42:22;23.40;99.90
52731;DHT22;38624;53.242;6.974;2022-07-29T13:44:47;23.40;99.90
52731;DHT22;38624;53.242;6.974;2022-07-29T13:47:21;23.30;99.90
52731;DHT22;38624;53.242;6.974;2022-07-29T13:49:47;23.20;99.90
52731;DHT22;38624;53.242;6.974;2022-07-29T13:52:13;23.20;99.90
52731;DHT22;38624;53.242;6.974;2022-07-29T13:54:39;23.20;99.90
52731;DHT22;38624;53.242;6.974;2022-07-29T13:57:05;23.20;99.90
52731;DHT22;38624;53.242;6.974;2022-07-29T13:59:31;23.20;99.90
52731;DHT22;38624;53.242;6.974;2022-07-29T14:01:57;23.20;99.90
52731;DHT22;38624;53.242;6.974;2022-07-29T14:04:22;23.20;99.90
52731;DHT22;38624;53.242;6.974;2022-07-29T14:06:51;23.20;99.90
52731;DHT22;38624;53.242;6.974;2022-07-29T14:09:17;23.20;99.90
52731;DHT22;38624;53.242;6.974;2022-07-29T14:11:43;23.10;99.90
52731;DHT22;38624;53.242;6.974;2022-07-29T14:14:09;23.20;99.90
52731;DHT22;38624;53.242;6.974;2022-07-29T14:16:36;23.20;99.90
52731;DHT22;38624;53.242;6.974;2022-07-29T14:19:01;23.20;99.90
52731;DHT22;38624;53.242;6.974;2022-07-29T14:21:27;23.20;99.90
52731;DHT22;38624;53.242;6.974;2022-07-29T14:23:53;23.20;99.90
52731;DHT22;38624;53.242;6.974;2022-07-29T14:26:20;23.30;99.90
52731;DHT22;38624;53.242;6.974;2022-07-29T14:28:46;23.30;99.90
52731;DHT22;38624;53.242;6.974;2022-07-29T14:31:11;23.30;99.90
52731;DHT22;38624;53.242;6.974;2022-07-29T14:33:37;23.30;99.90
52731;DHT22;38624;53.242;6.974;2022-07-29T14:36:03;23.30;99.90
52731;DHT22;38624;53.242;6.974;2022-07-29T14:38:29;23.40;99.90
52731;DHT22;38624;53.242;6.974;2022-07-29T14:40:54;23.40;99.90
52731;DHT22;38624;53.242;6.974;2022-07-29T14:43:20;23.40;99.90
52731;DHT22;38624;53.242;6.974;2022-07-29T14:45:46;23.40;99.90
52731;DHT22;38624;53.242;6.974;2022-07-29T14:48:11;23.40;99.90
52731;DHT22;38624;53.242;6.974;2022-07-29T14:50:37;23.40;99.90
52731;DHT22;38624;53.242;6.974;2022-07-29T14:53:03;23.40;99.90
52731;DHT22;38624;53.242;6.974;2022-07-29T14:55:29;23.40;99.90
52731;DHT22;38624;53.242;6.974;2022-07-29T14:57:55;23.30;99.90
52731;DHT22;38624;53.242;6.974;2022-07-29T15:00:21;23.20;99.90
52731;DHT22;38624;53.242;6.974;2022-07-29T15:02:48;23.20;99.90
52731;DHT22;38624;53.242;6.974;2022-07-29T15:05:14;23.20;99.90
52731;DHT22;38624;53.242;6.974;2022-07-29T15:07:39;23.10;99.90
52731;DHT22;38624;53.242;6.974;2022-07-29T15:10:06;23.10;99.90
52731;DHT22;38624;53.242;6.974;2022-07-29T15:12:32;23.10;99.90
52731;DHT22;38624;53.242;6.974;2022-07-29T15:14:57;23.10;99.90
52731;DHT22;38624;53.242;6.974;2022-07-29T15:17:23;23.00;99.90
52731;DHT22;38624;53.242;6.974;2022-07-29T15:19:49;23.00;99.90
52731;DHT22;38624;53.242;6.974;2022-07-29T15:22:15;23.00;99.90
52731;DHT22;38624;53.242;6.974;2022-07-29T15:24:40;23.00;99.90
52731;DHT22;38624;53.242;6.974;2022-07-29T15:27:06;23.00;99.90
52731;DHT22;38624;53.242;6.974;2022-07-29T15:29:32;23.00;99.90
52731;DHT22;38624;53.242;6.974;2022-07-29T15:31:58;23.00;99.90
52731;DHT22;38624;53.242;6.974;2022-07-29T15:34:24;23.10;99.90
52731;DHT22;38624;53.242;6.974;2022-07-29T15:36:53;23.10;99.90
52731;DHT22;38624;53.242;6.974;2022-07-29T15:39:20;23.10;99.90
52731;DHT22;38624;53.242;6.974;2022-07-29T15:41:46;23.20;99.90
52731;DHT22;38624;53.242;6.974;2022-07-29T15:44:11;23.50;99.90
52731;DHT22;38624;53.242;6.974;2022-07-29T15:46:37;24.10;99.90
52731;DHT22;38624;53.242;6.974;2022-07-29T15:49:21;24.20;99.90
52731;DHT22;38624;53.242;6.974;2022-07-29T15:51:47;24.40;99.90
52731;DHT22;38624;53.242;6.974;2022-07-29T15:54:12;24.60;99.90
52731;DHT22;38624;53.242;6.974;2022-07-29T15:56:38;24.70;99.90
52731;DHT22;38624;53.242;6.974;2022-07-29T15:59:04;24.90;99.90
52731;DHT22;38624;53.242;6.974;2022-07-29T16:01:29;25.00;99.90
52731;DHT22;38624;53.242;6.974;2022-07-29T16:03:56;25.20;99.90
52731;DHT22;38624;53.242;6.974;2022-07-29T16:06:22;25.30;99.90
52731;DHT22;38624;53.242;6.974;2022-07-29T16:08:48;26.60;99.90
52731;DHT22;38624;53.242;6.974;2022-07-29T16:11:13;28.30;99.90
52731;DHT22;38624;53.242;6.974;2022-07-29T16:13:39;29.70;97.90
52731;DHT22;38624;53.242;6.974;2022-07-29T16:16:05;31.20;96.30
52731;DHT22;38624;53.242;6.974;2022-07-29T16:18:31;32.70;94.20
52731;DHT22;38624;53.242;6.974;2022-07-29T16:20:57;33.80;91.80
52731;DHT22;38624;53.242;6.974;2022-07-29T16:23:22;34.30;86.00
52731;DHT22;38624;53.242;6.974;2022-07-29T16:25:49;34.70;81.00
52731;DHT22;38624;53.242;6.974;2022-07-29T16:28:14;35.00;76.00
52731;DHT22;38624;53.242;6.974;2022-07-29T16:30:41;34.90;72.10